Lesage, West Virginia
Current Conditions -  °F | °C
As of 4:51 PM on Thursday 27 Nov 2014 (Local Time) from KHTS Reporting Station
Overcast Overcast  
Wind Chill: -3°   Ceiling: 4800
Heat Index:   Visibility: 10mi
Dew Point: -6°   Wind: 7mph
Humidity: 61%   Direction: 310°NW
Pressure: 30.28"   Gusts: NA
Location:  38.51°N, 82.3°W
Report Text: KHTS 272151Z 31006KT 10SM FEW033 OVC048 01/M06 A3028 RMK AO2 SLP261 T00061061
Loading
Personal Weather Stations






























Interactive Weather Map New forecast layout! Learn more

10-Day Weather Forecast

Advertisements
Track Severe Weather on mobile